createdAt,value
2018-09-21T00:01:48.422Z,22.10
2018-09-21T00:04:16.676Z,22.00
2018-09-21T00:06:45.302Z,22.00
2018-09-21T00:09:13.791Z,22.00
2018-09-21T00:11:42.003Z,22.00
2018-09-21T00:14:10.267Z,21.90
2018-09-21T00:16:38.512Z,21.80
2018-09-21T00:19:06.783Z,21.80
2018-09-21T00:21:35.029Z,21.80
2018-09-21T00:24:03.261Z,21.80
2018-09-21T00:26:31.638Z,21.80
2018-09-21T00:28:59.912Z,21.80
2018-09-21T00:31:28.167Z,21.70
2018-09-21T00:33:56.406Z,21.70
2018-09-21T00:36:24.680Z,21.60
2018-09-21T00:38:52.928Z,21.70
2018-09-21T00:41:21.195Z,21.70
2018-09-21T00:43:49.514Z,21.60
2018-09-21T00:46:17.753Z,21.50
2018-09-21T00:48:46.233Z,21.50
2018-09-21T00:51:14.486Z,21.50
2018-09-21T00:53:42.758Z,21.50
2018-09-21T00:56:10.984Z,21.60
2018-09-21T00:58:39.236Z,21.60
2018-09-21T01:01:07.450Z,21.60
2018-09-21T01:03:35.728Z,21.50
2018-09-21T01:06:03.954Z,21.50
2018-09-21T01:08:32.215Z,21.40
2018-09-21T01:11:00.468Z,21.40
2018-09-21T01:13:28.710Z,21.40
2018-09-21T01:15:56.983Z,21.30
2018-09-21T01:18:25.213Z,21.30
2018-09-21T01:20:53.451Z,21.30
2018-09-21T01:23:21.718Z,21.30
2018-09-21T01:25:49.937Z,21.20
2018-09-21T01:28:18.174Z,21.20
2018-09-21T01:30:46.422Z,21.10
2018-09-21T01:33:14.637Z,21.10
2018-09-21T01:35:42.866Z,21.00
2018-09-21T01:38:11.118Z,21.10
2018-09-21T01:40:39.324Z,20.90
2018-09-21T01:43:07.561Z,21.00
2018-09-21T01:45:35.786Z,20.90
2018-09-21T01:48:04.031Z,20.80
2018-09-21T01:50:32.286Z,20.80
2018-09-21T01:53:00.520Z,20.70
2018-09-21T01:55:28.780Z,20.80
2018-09-21T01:57:57.324Z,20.70
2018-09-21T02:00:25.567Z,20.70
2018-09-21T02:02:53.789Z,20.60
2018-09-21T02:05:22.031Z,20.50
2018-09-21T02:07:50.272Z,20.50
2018-09-21T02:10:18.497Z,20.50
2018-09-21T02:12:46.783Z,20.50
2018-09-21T02:15:15.023Z,20.50
2018-09-21T02:17:43.274Z,20.50
2018-09-21T02:20:11.485Z,20.50
2018-09-21T02:22:39.705Z,20.50
2018-09-21T02:25:07.968Z,20.50
2018-09-21T02:27:37.040Z,20.40
2018-09-21T02:30:05.377Z,20.40
2018-09-21T02:32:33.614Z,20.40
2018-09-21T02:35:01.851Z,20.50
2018-09-21T02:37:30.053Z,20.40
2018-09-21T02:39:58.282Z,20.30
2018-09-21T02:42:26.760Z,20.30
2018-09-21T02:44:55.020Z,20.40
2018-09-21T02:47:23.264Z,20.40
2018-09-21T02:49:51.515Z,20.40
2018-09-21T02:52:19.778Z,20.40
2018-09-21T02:54:48.040Z,20.40
2018-09-21T02:57:16.269Z,20.40
2018-09-21T02:59:44.506Z,20.40
2018-09-21T03:02:12.715Z,20.40
2018-09-21T03:04:46.268Z,20.40
2018-09-21T03:07:14.722Z,20.40
2018-09-21T03:09:43.077Z,20.40
2018-09-21T03:12:11.362Z,20.40
2018-09-21T03:14:39.560Z,20.40
2018-09-21T03:17:07.784Z,20.50
2018-09-21T03:19:36.010Z,20.50
2018-09-21T03:22:04.249Z,20.40
2018-09-21T03:24:32.478Z,20.50
2018-09-21T03:27:00.944Z,20.50
2018-09-21T03:29:29.339Z,20.50
2018-09-21T03:31:57.604Z,20.50
2018-09-21T03:34:25.818Z,20.50
2018-09-21T03:36:54.072Z,20.50
2018-09-21T03:39:22.276Z,20.50
2018-09-21T03:41:50.534Z,20.50
2018-09-21T03:44:19.028Z,20.50
2018-09-21T03:46:47.404Z,20.50
2018-09-21T03:49:16.475Z,20.50
2018-09-21T03:51:44.727Z,20.50
2018-09-21T03:54:12.958Z,20.60
2018-09-21T03:56:41.166Z,20.60
2018-09-21T03:59:09.678Z,20.60
2018-09-21T04:01:37.882Z,20.70
2018-09-21T04:04:06.412Z,20.70
2018-09-21T04:06:34.640Z,20.80
2018-09-21T04:09:02.896Z,20.80
2018-09-21T04:11:31.210Z,20.90
2018-09-21T04:13:59.514Z,21.00
2018-09-21T04:16:27.879Z,21.00
2018-09-21T04:18:56.159Z,21.00
2018-09-21T04:21:24.413Z,21.00
2018-09-21T04:23:52.711Z,21.00
2018-09-21T04:26:21.066Z,21.10
2018-09-21T04:28:49.301Z,21.10
2018-09-21T04:31:17.536Z,21.10
2018-09-21T04:33:45.870Z,21.10
2018-09-21T04:36:14.185Z,21.10
2018-09-21T04:38:42.418Z,21.20
2018-09-21T04:41:10.685Z,21.10
2018-09-21T04:43:38.961Z,21.20
2018-09-21T04:46:07.261Z,21.20
2018-09-21T04:48:35.921Z,21.30
2018-09-21T04:51:04.164Z,21.30
2018-09-21T04:53:32.394Z,21.40
2018-09-21T04:56:00.619Z,21.40
2018-09-21T04:58:28.874Z,21.50
2018-09-21T05:00:57.093Z,21.60
2018-09-21T05:03:25.348Z,21.70
2018-09-21T05:05:53.605Z,21.70
2018-09-21T05:08:21.843Z,21.70
2018-09-21T05:10:50.114Z,21.70
2018-09-21T05:13:18.354Z,21.80
2018-09-21T05:15:46.604Z,21.80
2018-09-21T05:18:14.854Z,21.90
2018-09-21T05:20:43.101Z,21.90
2018-09-21T05:23:11.330Z,21.90
2018-09-21T05:25:39.592Z,22.00
2018-09-21T05:28:07.816Z,22.10
2018-09-21T05:30:36.126Z,22.10
2018-09-21T05:33:04.341Z,22.10
2018-09-21T05:35:32.592Z,22.20
2018-09-21T05:38:00.827Z,22.30
2018-09-21T05:40:29.048Z,22.40
2018-09-21T05:42:57.275Z,22.40
2018-09-21T05:45:25.552Z,22.40
2018-09-21T05:47:53.791Z,22.50
2018-09-21T05:50:22.005Z,22.50
2018-09-21T05:52:50.240Z,22.50
2018-09-21T05:55:18.458Z,22.50
2018-09-21T05:57:46.743Z,22.60
2018-09-21T06:00:16.441Z,22.60
2018-09-21T06:02:45.371Z,22.60
2018-09-21T06:05:13.628Z,22.60
2018-09-21T06:07:41.848Z,22.60
2018-09-21T06:10:10.066Z,22.60
2018-09-21T06:12:38.549Z,22.60
2018-09-21T06:15:07.580Z,22.70
2018-09-21T06:17:35.819Z,22.70
2018-09-21T06:20:11.978Z,22.70
2018-09-21T06:22:32.334Z,22.80
2018-09-21T06:25:00.624Z,22.80
2018-09-21T06:27:28.863Z,22.70
2018-09-21T06:29:57.097Z,22.70
2018-09-21T06:32:25.363Z,22.70
2018-09-21T06:34:53.590Z,22.70
2018-09-21T06:37:21.956Z,22.80
2018-09-21T06:39:50.293Z,22.90
2018-09-21T06:42:18.532Z,22.80
2018-09-21T06:44:46.756Z,22.80
2018-09-21T06:47:15.004Z,22.80
2018-09-21T06:49:43.273Z,22.80
2018-09-21T06:52:11.521Z,22.80
2018-09-21T06:54:39.767Z,22.80
2018-09-21T06:57:08.041Z,22.80
2018-09-21T06:59:36.303Z,22.90
2018-09-21T07:02:04.625Z,22.90
2018-09-21T07:04:32.922Z,22.90
2018-09-21T07:07:01.177Z,23.00
2018-09-21T07:09:30.413Z,23.00
2018-09-21T07:11:58.642Z,23.10
2018-09-21T07:14:26.868Z,23.10
2018-09-21T07:16:55.134Z,23.20
2018-09-21T07:19:23.392Z,23.20
2018-09-21T07:21:51.629Z,23.20
2018-09-21T07:24:19.864Z,23.10
2018-09-21T07:26:48.090Z,23.10
2018-09-21T07:29:16.322Z,23.10
2018-09-21T07:31:44.560Z,23.00
2018-09-21T07:34:12.803Z,23.10
2018-09-21T07:36:41.058Z,23.00
2018-09-21T07:39:09.267Z,23.10
2018-09-21T07:41:37.512Z,23.00
2018-09-21T07:44:05.756Z,23.00
2018-09-21T07:46:34.009Z,23.00
2018-09-21T07:49:02.388Z,23.00
2018-09-21T07:51:30.623Z,23.10
2018-09-21T07:53:58.826Z,23.00
2018-09-21T07:56:27.058Z,22.90
2018-09-21T07:58:55.341Z,22.90
2018-09-21T08:01:23.608Z,22.90
2018-09-21T08:03:51.859Z,22.80
2018-09-21T08:06:20.113Z,22.50
2018-09-21T08:08:48.325Z,22.40
2018-09-21T08:11:16.573Z,22.40
2018-09-21T08:13:44.847Z,22.30
2018-09-21T08:16:13.112Z,22.40
2018-09-21T08:18:41.357Z,22.30
2018-09-21T08:21:09.565Z,22.40
2018-09-21T08:23:37.841Z,22.60
2018-09-21T08:26:06.131Z,22.80
2018-09-21T08:28:34.418Z,22.90
2018-09-21T08:31:02.733Z,23.00
2018-09-21T08:33:30.988Z,23.10
2018-09-21T08:35:59.276Z,23.20
2018-09-21T08:41:18.342Z,23.20
2018-09-21T08:43:46.585Z,23.30
2018-09-21T08:46:15.574Z,23.30
2018-09-21T08:48:44.371Z,23.30
2018-09-21T08:51:12.702Z,23.20
2018-09-21T08:53:41.022Z,22.90
2018-09-21T08:56:09.616Z,22.70
2018-09-21T08:58:37.853Z,22.50
2018-09-21T09:01:06.100Z,22.40
2018-09-21T09:03:34.352Z,22.10
2018-09-21T09:06:02.593Z,21.70
2018-09-21T09:08:30.817Z,21.10
2018-09-21T09:10:59.072Z,20.50
2018-09-21T09:13:27.366Z,19.90
2018-09-21T09:15:55.647Z,19.40
2018-09-21T09:18:23.841Z,19.00
2018-09-21T09:20:52.095Z,18.60
2018-09-21T09:23:20.491Z,18.40
2018-09-21T09:25:48.666Z,17.80
2018-09-21T09:28:16.903Z,17.20
2018-09-21T09:30:45.257Z,16.80
2018-09-21T09:33:13.503Z,16.50
2018-09-21T09:35:41.715Z,16.30
2018-09-21T09:38:09.953Z,16.00
2018-09-21T09:40:38.209Z,15.80
2018-09-21T09:43:06.479Z,15.70
2018-09-21T09:45:34.732Z,15.60
2018-09-21T09:48:03.049Z,15.70
2018-09-21T09:50:31.292Z,15.80
2018-09-21T09:52:59.525Z,15.80
2018-09-21T09:55:27.811Z,15.90
2018-09-21T09:57:56.055Z,15.90
2018-09-21T10:00:29.894Z,15.90
2018-09-21T10:02:58.126Z,15.90
2018-09-21T10:05:26.343Z,15.80
2018-09-21T10:07:54.600Z,15.70
2018-09-21T10:10:22.905Z,15.70
2018-09-21T10:12:51.702Z,15.60
2018-09-21T10:15:20.029Z,15.50
2018-09-21T10:17:48.327Z,15.50
2018-09-21T10:20:16.535Z,15.40
2018-09-21T10:22:44.774Z,15.40
2018-09-21T10:25:13.040Z,15.40
2018-09-21T10:27:41.556Z,15.40
2018-09-21T10:30:09.552Z,15.40
2018-09-21T10:32:37.789Z,15.40
2018-09-21T10:35:06.020Z,15.40
2018-09-21T10:37:34.295Z,15.30
2018-09-21T10:40:02.626Z,15.30
2018-09-21T10:42:30.867Z,15.30
2018-09-21T10:44:59.075Z,15.30
2018-09-21T10:47:27.286Z,15.40
2018-09-21T10:49:55.498Z,15.60
2018-09-21T10:52:23.717Z,15.80
2018-09-21T10:54:51.935Z,15.90
2018-09-21T10:57:20.173Z,15.90
2018-09-21T10:59:48.393Z,15.80
2018-09-21T11:02:16.642Z,15.80
2018-09-21T11:04:44.915Z,15.70
2018-09-21T11:07:13.174Z,15.70
2018-09-21T11:09:41.392Z,15.80
2018-09-21T11:12:09.646Z,15.80
2018-09-21T11:14:37.903Z,15.70
2018-09-21T11:17:06.379Z,15.80
2018-09-21T11:19:34.626Z,16.00
2018-09-21T11:22:02.854Z,16.00
2018-09-21T11:24:31.131Z,16.20
2018-09-21T11:26:59.400Z,16.20
2018-09-21T11:29:27.694Z,16.20
2018-09-21T11:31:55.938Z,16.20
2018-09-21T11:34:24.200Z,16.10
2018-09-21T11:36:52.484Z,16.00
2018-09-21T11:39:20.724Z,16.00
2018-09-21T11:41:48.988Z,16.10
2018-09-21T11:44:17.259Z,16.20
2018-09-21T11:46:45.646Z,16.40
2018-09-21T11:49:13.881Z,16.60
2018-09-21T11:51:42.380Z,16.80
2018-09-21T11:54:11.029Z,17.00
2018-09-21T11:56:39.287Z,17.10
2018-09-21T11:59:07.578Z,17.20
2018-09-21T12:01:35.859Z,17.20
2018-09-21T12:04:04.104Z,17.30
2018-09-21T12:06:32.372Z,17.30
2018-09-21T12:09:00.622Z,17.40
2018-09-21T12:11:28.880Z,17.30
2018-09-21T12:13:57.151Z,17.30
2018-09-21T12:16:25.397Z,17.20
2018-09-21T12:18:53.670Z,17.00
2018-09-21T12:21:21.915Z,16.70
2018-09-21T12:23:50.177Z,16.60
2018-09-21T12:26:18.449Z,16.30
2018-09-21T12:28:46.923Z,15.90
2018-09-21T12:31:15.175Z,15.80
2018-09-21T12:33:44.578Z,15.80
2018-09-21T12:36:12.828Z,15.70
2018-09-21T12:38:41.196Z,15.90
2018-09-21T12:41:09.402Z,16.00
2018-09-21T12:43:38.803Z,16.10
2018-09-21T12:46:10.110Z,16.10
2018-09-21T12:48:38.343Z,16.30
2018-09-21T12:51:12.999Z,16.30
2018-09-21T12:53:41.461Z,16.50
2018-09-21T12:56:09.732Z,16.50
2018-09-21T12:58:38.133Z,16.50
2018-09-21T13:01:06.463Z,16.60
2018-09-21T13:03:34.661Z,16.60
2018-09-21T13:06:03.214Z,16.70
2018-09-21T13:08:31.647Z,16.80
2018-09-21T13:10:59.911Z,16.80
2018-09-21T13:13:28.143Z,16.90
2018-09-21T13:15:56.434Z,17.00
2018-09-21T13:18:24.655Z,17.10
2018-09-21T13:20:52.915Z,17.10
2018-09-21T13:23:21.180Z,17.10
2018-09-21T13:25:50.638Z,17.10
2018-09-21T13:28:18.886Z,17.30
2018-09-21T13:30:47.177Z,17.30
2018-09-21T13:33:15.411Z,17.30
2018-09-21T13:35:43.618Z,17.10
2018-09-21T13:38:11.838Z,17.10
2018-09-21T13:40:40.102Z,17.10
2018-09-21T13:43:08.338Z,17.10
2018-09-21T13:45:36.572Z,17.10
2018-09-21T13:48:04.837Z,17.20
2018-09-21T13:50:33.126Z,17.20
2018-09-21T13:53:01.336Z,17.20
2018-09-21T13:55:29.595Z,17.10
2018-09-21T13:57:57.824Z,17.20
2018-09-21T14:00:26.044Z,17.30
2018-09-21T14:02:55.116Z,17.40
2018-09-21T14:05:23.466Z,17.50
2018-09-21T14:07:51.614Z,17.50
2018-09-21T14:10:19.867Z,17.70
2018-09-21T14:12:49.005Z,18.40
2018-09-21T14:15:17.255Z,19.00
2018-09-21T14:17:45.511Z,19.10
2018-09-21T14:20:13.751Z,18.80
2018-09-21T14:22:42.005Z,19.40
2018-09-21T14:25:10.243Z,20.40
2018-09-21T14:27:38.459Z,21.20
2018-09-21T14:30:06.739Z,21.30
2018-09-21T14:32:34.982Z,21.60
2018-09-21T14:35:03.316Z,22.40
2018-09-21T14:37:31.580Z,22.70
2018-09-21T14:39:59.814Z,22.60
2018-09-21T14:42:28.050Z,22.60
2018-09-21T14:44:56.293Z,22.50
2018-09-21T14:47:24.510Z,22.80
2018-09-21T14:49:52.764Z,22.60
2018-09-21T14:52:21.048Z,22.00
2018-09-21T14:54:49.324Z,21.30
2018-09-21T14:57:17.613Z,22.00
2018-09-21T14:59:45.908Z,21.80
2018-09-21T15:02:14.099Z,22.30
2018-09-21T15:04:42.340Z,22.70
2018-09-21T15:07:10.576Z,22.90
2018-09-21T15:09:38.995Z,23.50
2018-09-21T15:12:07.260Z,23.40
2018-09-21T15:14:35.483Z,22.80
2018-09-21T15:17:03.798Z,22.80
2018-09-21T15:19:32.006Z,22.90
2018-09-21T15:22:00.259Z,22.80
2018-09-21T15:24:28.502Z,22.90
2018-09-21T15:26:56.761Z,22.80
2018-09-21T15:29:24.989Z,22.20
2018-09-21T15:31:53.237Z,22.20
2018-09-21T15:34:21.472Z,22.40
2018-09-21T15:36:49.890Z,21.50
2018-09-21T15:39:18.188Z,20.70
2018-09-21T15:41:46.488Z,20.80
2018-09-21T15:44:14.732Z,20.30
2018-09-21T15:46:42.981Z,20.40
2018-09-21T15:49:11.237Z,20.00
2018-09-21T15:51:40.359Z,19.40
2018-09-21T15:54:08.628Z,19.80
2018-09-21T15:56:36.847Z,20.40
2018-09-21T15:59:05.119Z,21.00
2018-09-21T16:01:33.334Z,21.10
2018-09-21T16:04:01.566Z,20.70
2018-09-21T16:06:32.632Z,20.80
2018-09-21T16:09:01.961Z,20.70
2018-09-21T16:11:30.189Z,20.50
2018-09-21T16:13:58.422Z,20.70
2018-09-21T16:16:26.667Z,21.10
2018-09-21T16:18:54.923Z,21.20
2018-09-21T16:21:23.357Z,21.50
2018-09-21T16:23:51.597Z,21.70
2018-09-21T16:26:19.913Z,21.80
2018-09-21T16:28:48.245Z,21.50
2018-09-21T16:31:16.498Z,21.00
2018-09-21T16:33:44.704Z,20.10
2018-09-21T16:36:13.010Z,19.50
2018-09-21T16:38:41.498Z,19.10
2018-09-21T16:41:09.797Z,19.20
2018-09-21T16:43:38.030Z,19.50
2018-09-21T16:46:06.440Z,19.20
2018-09-21T16:48:35.473Z,19.00
2018-09-21T16:51:03.732Z,18.80
2018-09-21T16:53:31.960Z,18.50
2018-09-21T16:56:00.230Z,18.30
2018-09-21T16:58:28.476Z,18.10
2018-09-21T17:00:56.665Z,18.00
2018-09-21T17:03:25.019Z,17.60
2018-09-21T17:05:53.194Z,17.40
2018-09-21T17:08:21.458Z,17.20
2018-09-21T17:10:49.711Z,17.10
2018-09-21T17:13:17.939Z,16.90
2018-09-21T17:15:46.224Z,16.80
2018-09-21T17:18:14.445Z,16.60
2018-09-21T17:20:42.677Z,16.60
2018-09-21T17:23:10.891Z,16.60
2018-09-21T17:25:39.182Z,16.60
2018-09-21T17:28:07.396Z,16.50
2018-09-21T17:30:35.627Z,16.40
2018-09-21T17:33:04.136Z,16.40
2018-09-21T17:35:32.390Z,16.30
2018-09-21T17:38:00.639Z,16.30
2018-09-21T17:40:28.862Z,16.20
2018-09-21T17:42:57.126Z,16.20
2018-09-21T17:45:25.380Z,16.20
2018-09-21T17:47:53.606Z,16.10
2018-09-21T17:50:21.834Z,16.10
2018-09-21T17:52:50.100Z,16.10
2018-09-21T17:55:18.310Z,16.10
2018-09-21T17:57:46.636Z,16.10
2018-09-21T18:00:14.871Z,16.00
2018-09-21T18:02:43.114Z,16.00
2018-09-21T18:05:11.322Z,15.90
2018-09-21T18:07:39.526Z,15.90
2018-09-21T18:10:07.759Z,15.90
2018-09-21T18:12:36.011Z,16.00
2018-09-21T18:15:04.546Z,16.00
2018-09-21T18:17:32.753Z,16.10
2018-09-21T18:20:00.988Z,16.20
2018-09-21T18:22:29.210Z,16.20
2018-09-21T18:24:57.418Z,16.30
2018-09-21T18:27:26.410Z,16.30
2018-09-21T18:29:54.674Z,16.30
2018-09-21T18:32:23.779Z,16.30
2018-09-21T18:34:52.052Z,16.20
2018-09-21T18:37:20.353Z,16.30
2018-09-21T18:39:48.555Z,16.30
2018-09-21T18:42:16.793Z,16.30
2018-09-21T18:44:45.104Z,16.20
2018-09-21T18:47:13.262Z,16.30
2018-09-21T18:49:41.512Z,16.20
2018-09-21T18:52:09.711Z,16.10
2018-09-21T18:54:37.931Z,16.00
2018-09-21T18:57:06.202Z,15.50
2018-09-21T18:59:34.413Z,14.60
2018-09-21T19:02:02.671Z,14.20
2018-09-21T19:04:30.899Z,13.80
2018-09-21T19:06:59.127Z,13.40
2018-09-21T19:09:27.375Z,13.30
2018-09-21T19:11:55.606Z,13.20
2018-09-21T19:14:23.875Z,13.10
2018-09-21T19:16:52.099Z,13.00
2018-09-21T19:19:20.338Z,13.10
2018-09-21T19:21:48.593Z,13.10
2018-09-21T19:24:16.855Z,13.20
2018-09-21T19:26:45.120Z,13.20
2018-09-21T19:29:13.349Z,13.20
2018-09-21T19:31:41.572Z,13.20
2018-09-21T19:34:09.832Z,13.30
2018-09-21T19:36:38.066Z,13.40
2018-09-21T19:39:09.115Z,13.40
2018-09-21T19:41:38.603Z,13.40
2018-09-21T19:44:06.912Z,13.40
2018-09-21T19:46:35.174Z,13.40
2018-09-21T19:49:03.702Z,13.20
2018-09-21T19:51:31.952Z,13.10
2018-09-21T19:54:00.201Z,13.10
2018-09-21T19:56:28.454Z,13.00
2018-09-21T19:58:56.709Z,13.00
2018-09-21T20:01:24.957Z,13.00
2018-09-21T20:03:53.236Z,13.10
2018-09-21T20:06:21.528Z,13.20
2018-09-21T20:08:49.770Z,13.20
2018-09-21T20:11:18.492Z,13.30
2018-09-21T20:13:46.750Z,13.40
2018-09-21T20:16:15.004Z,13.50
2018-09-21T20:18:44.078Z,13.70
2018-09-21T20:21:12.307Z,13.80
2018-09-21T20:23:40.921Z,13.90
2018-09-21T20:26:09.295Z,14.00
2018-09-21T20:28:38.079Z,14.10
2018-09-21T20:31:11.888Z,14.20
2018-09-21T20:33:40.331Z,14.00
2018-09-21T20:36:08.580Z,14.00
2018-09-21T20:38:36.806Z,14.00
2018-09-21T20:41:05.036Z,13.90
2018-09-21T20:43:33.282Z,13.60
2018-09-21T20:46:01.521Z,13.50
2018-09-21T20:48:29.763Z,13.20
2018-09-21T20:50:58.072Z,13.20
2018-09-21T20:53:28.758Z,13.00
2018-09-21T20:55:56.989Z,13.10
2018-09-21T20:58:25.239Z,13.00
2018-09-21T21:00:53.455Z,12.90
2018-09-21T21:03:21.698Z,12.90
2018-09-21T21:05:50.062Z,12.70
2018-09-21T21:11:10.031Z,12.20
2018-09-21T21:13:38.357Z,12.10
2018-09-21T21:16:06.807Z,12.00
2018-09-21T21:18:35.056Z,12.00
2018-09-21T21:21:11.640Z,11.90
2018-09-21T21:23:40.511Z,11.90
2018-09-21T21:26:18.200Z,12.00
2018-09-21T21:28:46.462Z,12.10
2018-09-21T21:31:14.828Z,12.10
2018-09-21T21:33:43.144Z,12.10
2018-09-21T21:36:13.300Z,12.10
2018-09-21T21:38:41.613Z,12.10
2018-09-21T21:41:10.287Z,12.10
2018-09-21T21:43:42.306Z,12.10
2018-09-21T21:46:10.753Z,12.20
2018-09-21T21:48:38.987Z,12.30
2018-09-21T21:51:07.230Z,12.30
2018-09-21T21:53:35.468Z,12.30
2018-09-21T21:56:03.715Z,12.30
2018-09-21T21:58:31.948Z,12.20
2018-09-21T22:01:06.164Z,12.20
2018-09-21T22:03:34.680Z,12.10
2018-09-21T22:06:02.887Z,12.20
2018-09-21T22:08:31.190Z,12.20
2018-09-21T22:10:59.414Z,12.20
2018-09-21T22:13:33.295Z,12.20
2018-09-21T22:16:01.544Z,12.20
2018-09-21T22:18:29.804Z,12.20
2018-09-21T22:20:58.897Z,12.10
2018-09-21T22:23:27.155Z,12.10
2018-09-21T22:25:55.511Z,12.10
2018-09-21T22:28:23.837Z,12.20
2018-09-21T22:30:52.231Z,12.20
2018-09-21T22:33:20.636Z,12.20
2018-09-21T22:35:49.000Z,12.20
2018-09-21T22:38:17.294Z,12.30
2018-09-21T22:40:45.531Z,12.20
2018-09-21T22:43:13.815Z,12.20
2018-09-21T22:45:42.090Z,12.20
2018-09-21T22:48:10.838Z,12.30
2018-09-21T22:50:39.069Z,12.40
2018-09-21T22:53:07.319Z,12.40
2018-09-21T22:55:35.555Z,12.40
2018-09-21T22:58:03.790Z,12.30
2018-09-21T23:00:32.048Z,12.30
2018-09-21T23:03:00.273Z,12.20
2018-09-21T23:05:28.490Z,12.20
2018-09-21T23:07:56.756Z,12.20
2018-09-21T23:10:25.007Z,12.20
2018-09-21T23:12:53.242Z,12.30
2018-09-21T23:15:21.501Z,12.30
2018-09-21T23:17:49.757Z,12.30
2018-09-21T23:20:18.024Z,12.20
2018-09-21T23:22:46.267Z,12.20
2018-09-21T23:25:14.469Z,12.20
2018-09-21T23:27:42.776Z,12.10
2018-09-21T23:30:11.055Z,12.10
2018-09-21T23:32:39.334Z,12.10
2018-09-21T23:35:07.573Z,12.10
2018-09-21T23:37:35.842Z,12.00
2018-09-21T23:40:04.095Z,12.00
2018-09-21T23:42:32.318Z,12.00
2018-09-21T23:45:00.573Z,12.00
2018-09-21T23:47:28.783Z,12.10
2018-09-21T23:49:57.015Z,12.10
2018-09-21T23:52:25.251Z,12.20
2018-09-21T23:54:53.450Z,12.20
2018-09-21T23:57:21.714Z,12.20
2018-09-21T23:59:49.953Z,12.20
